createdAt,value
2022-11-21T00:02:18.879Z,10.71
2022-11-21T00:04:47.207Z,10.45
2022-11-21T00:07:15.223Z,10.49
2022-11-21T00:09:43.618Z,10.48
2022-11-21T00:12:12.140Z,10.37
2022-11-21T00:14:40.440Z,10.39
2022-11-21T00:17:08.507Z,10.60
2022-11-21T00:19:36.797Z,10.61
2022-11-21T00:22:04.838Z,10.56
2022-11-21T00:24:33.707Z,10.64
2022-11-21T00:27:01.720Z,10.65
2022-11-21T00:29:30.659Z,10.52
2022-11-21T00:31:59.306Z,10.23
2022-11-21T00:34:28.083Z,10.20
2022-11-21T00:36:56.239Z,10.17
2022-11-21T00:39:24.578Z,10.46
2022-11-21T00:41:52.559Z,10.41
2022-11-21T00:44:20.867Z,10.46
2022-11-21T00:46:48.971Z,10.47
2022-11-21T00:49:18.058Z,10.36
2022-11-21T00:51:46.106Z,10.52
2022-11-21T00:54:16.476Z,10.24
2022-11-21T00:56:44.448Z,10.16
2022-11-21T00:59:12.767Z,10.22
2022-11-21T01:01:40.845Z,10.30
2022-11-21T01:04:09.246Z,10.30
2022-11-21T01:06:40.615Z,10.37
2022-11-21T01:09:09.017Z,10.32
2022-11-21T01:11:37.137Z,10.32
2022-11-21T01:14:05.718Z,10.27
2022-11-21T01:16:34.217Z,10.10
2022-11-21T01:19:02.595Z,10.20
2022-11-21T01:21:32.198Z,10.12
2022-11-21T01:24:03.037Z,9.95
2022-11-21T01:26:33.476Z,9.90
2022-11-21T01:29:01.780Z,9.99
2022-11-21T01:31:32.438Z,10.00
2022-11-21T01:34:01.772Z,9.98
2022-11-21T01:36:32.753Z,10.21
2022-11-21T01:39:04.113Z,9.95
2022-11-21T01:41:38.446Z,9.86
2022-11-21T01:44:21.956Z,9.67
2022-11-21T01:46:51.972Z,9.66
2022-11-21T01:49:32.860Z,9.63
2022-11-21T01:52:12.245Z,9.70
2022-11-21T01:54:58.714Z,9.65
2022-11-21T01:57:38.412Z,9.78
2022-11-21T02:00:11.842Z,9.85
2022-11-21T02:02:47.193Z,9.90
2022-11-21T02:05:24.302Z,9.68
2022-11-21T02:07:57.607Z,9.65
2022-11-21T02:10:27.972Z,9.69
2022-11-21T02:12:58.672Z,9.84
2022-11-21T02:15:29.483Z,9.66
2022-11-21T02:17:57.472Z,9.66
2022-11-21T02:20:28.911Z,9.53
2022-11-21T02:23:14.223Z,9.75
2022-11-21T02:25:43.832Z,9.86
2022-11-21T02:28:17.162Z,9.67
2022-11-21T02:30:47.213Z,9.68
2022-11-21T02:33:16.114Z,9.76
2022-11-21T02:35:45.621Z,9.43
2022-11-21T02:38:31.240Z,9.41
2022-11-21T02:41:07.164Z,9.50
2022-11-21T02:43:47.036Z,9.60
2022-11-21T02:46:15.345Z,9.31
2022-11-21T02:48:43.964Z,9.47
2022-11-21T02:51:12.182Z,9.26
2022-11-21T02:53:40.098Z,9.47
2022-11-21T02:56:08.450Z,9.33
2022-11-21T02:58:37.050Z,9.21
2022-11-21T03:01:06.039Z,9.41
2022-11-21T03:03:34.059Z,9.41
2022-11-21T03:06:02.466Z,9.69
2022-11-21T03:08:30.533Z,9.52
2022-11-21T03:10:58.751Z,9.12
2022-11-21T03:13:27.458Z,9.18
2022-11-21T03:15:55.801Z,9.17
2022-11-21T03:18:24.405Z,9.16
2022-11-21T03:20:53.080Z,9.14
2022-11-21T03:23:21.092Z,8.95
2022-11-21T03:25:51.033Z,8.90
2022-11-21T03:28:19.383Z,8.91
2022-11-21T03:30:47.893Z,8.93
2022-11-21T03:33:15.911Z,8.86
2022-11-21T03:35:44.294Z,8.93
2022-11-21T03:38:12.264Z,8.86
2022-11-21T03:40:40.533Z,9.28
2022-11-21T03:43:08.683Z,8.94
2022-11-21T03:45:38.182Z,9.15
2022-11-21T03:48:06.543Z,9.24
2022-11-21T03:50:34.804Z,9.28
2022-11-21T03:53:02.784Z,8.85
2022-11-21T03:55:31.173Z,8.91
2022-11-21T03:57:59.334Z,8.92
2022-11-21T04:00:27.645Z,9.00
2022-11-21T04:02:55.624Z,8.77
2022-11-21T04:05:25.244Z,8.61
2022-11-21T04:07:54.488Z,8.77
2022-11-21T04:10:22.743Z,8.67
2022-11-21T04:12:50.734Z,8.56
2022-11-21T04:15:20.155Z,8.70
2022-11-21T04:17:48.824Z,8.67
2022-11-21T04:20:17.244Z,8.93
2022-11-21T04:22:45.289Z,8.84
2022-11-21T04:25:14.194Z,8.71
2022-11-21T04:27:42.213Z,8.83
2022-11-21T04:30:11.242Z,8.75
2022-11-21T04:32:39.233Z,8.64
2022-11-21T04:35:09.161Z,8.62
2022-11-21T04:37:39.874Z,8.65
2022-11-21T04:40:08.673Z,8.45
2022-11-21T04:42:36.816Z,8.60
2022-11-21T04:45:06.333Z,8.63
2022-11-21T04:47:40.924Z,8.80
2022-11-21T04:50:11.884Z,8.61
2022-11-21T04:52:40.153Z,8.60
2022-11-21T04:55:09.606Z,8.42
2022-11-21T04:57:37.683Z,8.52
2022-11-21T05:00:06.658Z,8.53
2022-11-21T05:02:34.650Z,8.51
2022-11-21T05:05:02.940Z,8.52
2022-11-21T05:07:30.919Z,8.62
2022-11-21T05:09:59.315Z,8.69
2022-11-21T05:12:45.844Z,8.52
2022-11-21T05:15:14.123Z,8.43
2022-11-21T05:17:42.156Z,8.57
2022-11-21T05:20:11.653Z,8.76
2022-11-21T05:22:39.704Z,8.61
2022-11-21T05:25:08.435Z,8.52
2022-11-21T05:27:36.382Z,8.39
2022-11-21T05:30:05.785Z,8.63
2022-11-21T05:32:33.793Z,8.43
2022-11-21T05:35:02.353Z,8.37
2022-11-21T05:37:31.443Z,8.40
2022-11-21T05:39:59.994Z,8.32
2022-11-21T05:42:47.484Z,8.24
2022-11-21T05:45:15.936Z,8.24
2022-11-21T05:47:43.926Z,8.26
2022-11-21T05:50:13.487Z,8.33
2022-11-21T05:52:41.564Z,8.48
2022-11-21T05:55:09.843Z,8.57
2022-11-21T05:57:37.823Z,8.29
2022-11-21T06:00:06.856Z,8.52
2022-11-21T06:02:53.692Z,8.12
2022-11-21T06:05:21.972Z,8.36
2022-11-21T06:07:49.927Z,8.27
2022-11-21T06:10:18.272Z,8.37
2022-11-21T06:12:46.274Z,8.37
2022-11-21T06:15:14.625Z,8.41
2022-11-21T06:17:42.593Z,8.54
2022-11-21T06:20:12.133Z,8.23
2022-11-21T06:22:40.174Z,8.34
2022-11-21T06:25:08.823Z,8.31
2022-11-21T06:27:36.779Z,8.25
2022-11-21T06:30:07.534Z,8.33
2022-11-21T06:32:38.975Z,8.25
2022-11-21T06:35:07.841Z,8.76
2022-11-21T06:37:35.875Z,8.41
2022-11-21T06:40:04.565Z,8.37
2022-11-21T06:42:33.903Z,8.52
2022-11-21T06:45:02.244Z,8.30
2022-11-21T06:47:35.236Z,8.44
2022-11-21T06:50:03.892Z,8.72
2022-11-21T06:52:35.816Z,8.86
2022-11-21T06:55:04.414Z,8.76
2022-11-21T06:57:33.225Z,8.91
2022-11-21T07:00:02.280Z,8.93
2022-11-21T07:02:30.335Z,9.01
2022-11-21T07:04:58.764Z,8.88
2022-11-21T07:07:26.851Z,9.13
2022-11-21T07:09:55.343Z,9.20
2022-11-21T07:12:42.114Z,9.38
2022-11-21T07:15:11.234Z,9.18
2022-11-21T07:17:39.337Z,8.85
2022-11-21T07:20:08.294Z,9.17
2022-11-21T07:22:36.474Z,9.57
2022-11-21T07:25:05.144Z,10.33
2022-11-21T07:27:33.336Z,10.97
2022-11-21T07:30:01.643Z,11.10
2022-11-21T07:32:29.788Z,11.08
2022-11-21T07:34:58.123Z,10.91
2022-11-21T07:37:26.233Z,9.84
2022-11-21T07:39:54.715Z,9.61
2022-11-21T07:42:22.693Z,9.63
2022-11-21T07:44:52.305Z,9.47
2022-11-21T07:47:20.385Z,9.18
2022-11-21T07:49:49.905Z,9.36
2022-11-21T07:52:18.013Z,9.56
2022-11-21T07:54:46.373Z,9.78
2022-11-21T07:57:14.364Z,9.86
2022-11-21T07:59:42.933Z,9.87
2022-11-21T08:02:25.583Z,9.87
2022-11-21T08:04:55.346Z,9.91
2022-11-21T08:07:24.853Z,9.93
2022-11-21T08:09:53.265Z,10.07
2022-11-21T08:12:21.364Z,10.06
2022-11-21T08:14:49.680Z,10.32
2022-11-21T08:17:18.790Z,10.02
2022-11-21T08:19:47.233Z,10.26
2022-11-21T08:22:15.233Z,10.15
2022-11-21T08:24:43.563Z,9.97
2022-11-21T08:27:12.214Z,9.92
2022-11-21T08:29:40.524Z,9.97
2022-11-21T08:32:08.644Z,10.47
2022-11-21T08:34:36.998Z,10.14
2022-11-21T08:37:05.245Z,10.09
2022-11-21T08:39:33.535Z,9.99
2022-11-21T08:42:04.544Z,10.44
2022-11-21T08:44:34.859Z,10.33
2022-11-21T08:47:03.072Z,10.35
2022-11-21T08:49:32.634Z,10.71
2022-11-21T08:52:00.637Z,10.82
2022-11-21T08:54:30.437Z,10.50
2022-11-21T08:56:58.753Z,10.82
2022-11-21T08:59:27.148Z,11.18
2022-11-21T09:01:55.431Z,11.68
2022-11-21T09:04:23.877Z,12.50
2022-11-21T09:06:51.884Z,13.10
2022-11-21T09:09:25.065Z,13.70
2022-11-21T09:11:53.775Z,13.80
2022-11-21T09:14:42.475Z,13.91
2022-11-21T09:17:33.079Z,13.55
2022-11-21T09:20:01.591Z,13.04
2022-11-21T09:22:29.676Z,13.16
2022-11-21T09:24:58.034Z,12.43
2022-11-21T09:27:26.043Z,13.29
2022-11-21T09:29:54.533Z,13.14
2022-11-21T09:32:23.286Z,13.11
2022-11-21T09:34:52.745Z,13.43
2022-11-21T09:37:20.722Z,13.42
2022-11-21T09:39:49.164Z,12.97
2022-11-21T09:42:41.372Z,13.61
2022-11-21T09:45:25.269Z,14.24
2022-11-21T09:47:53.962Z,14.69
2022-11-21T09:50:36.103Z,14.02
2022-11-21T09:53:07.872Z,13.87
2022-11-21T09:55:36.072Z,14.61
2022-11-21T09:58:27.081Z,15.07
2022-11-21T10:00:55.661Z,14.82
2022-11-21T10:03:27.652Z,15.05
2022-11-21T10:06:07.414Z,15.62
2022-11-21T10:08:48.332Z,15.04
2022-11-21T10:12:17.293Z,14.98
2022-11-21T10:14:54.322Z,15.89
2022-11-21T10:17:37.692Z,15.33
2022-11-21T10:20:44.021Z,14.82
2022-11-21T10:23:44.612Z,13.89
2022-11-21T10:26:16.374Z,14.18
2022-11-21T10:29:04.703Z,13.93
2022-11-21T10:31:38.522Z,14.85
2022-11-21T11:05:51.848Z,13.47
2022-11-21T12:47:11.987Z,17.65
2022-11-21T13:34:41.302Z,15.44
2022-11-21T14:49:27.576Z,13.18
2022-11-21T16:53:55.813Z,12.26
2022-11-21T17:31:06.621Z,12.28
2022-11-21T18:15:11.046Z,12.50
2022-11-21T20:27:29.335Z,13.14
2022-11-21T20:35:28.684Z,13.16
2022-11-21T20:57:30.562Z,13.18
2022-11-21T21:00:58.179Z,13.29
2022-11-21T21:21:16.822Z,12.73
2022-11-21T22:49:11.777Z,11.89
2022-11-21T23:02:11.528Z,11.72
2022-11-21T23:11:28.686Z,11.66
2022-11-21T23:34:17.232Z,11.75
